sensor_id;sensor_type;location;lat;lon;timestamp;P1;durP1;ratioP1;P2;durP2;ratioP2
9842;SDS011;4960;48.736;9.108;2023-04-06T00:01:09;0.30;;;0.30;;
9842;SDS011;4960;48.736;9.108;2023-04-06T00:03:36;0.30;;;0.30;;
9842;SDS011;4960;48.736;9.108;2023-04-06T00:06:04;0.30;;;0.30;;
9842;SDS011;4960;48.736;9.108;2023-04-06T00:08:31;0.30;;;0.30;;
9842;SDS011;4960;48.736;9.108;2023-04-06T00:11:00;0.33;;;0.33;;
9842;SDS011;4960;48.736;9.108;2023-04-06T00:13:27;0.40;;;0.40;;
9842;SDS011;4960;48.736;9.108;2023-04-06T00:15:54;0.30;;;0.30;;
9842;SDS011;4960;48.736;9.108;2023-04-06T00:18:22;0.30;;;0.30;;
9842;SDS011;4960;48.736;9.108;2023-04-06T00:20:49;0.30;;;0.30;;
9842;SDS011;4960;48.736;9.108;2023-04-06T00:23:16;0.40;;;0.40;;
9842;SDS011;4960;48.736;9.108;2023-04-06T00:25:43;0.23;;;0.23;;
9842;SDS011;4960;48.736;9.108;2023-04-06T00:28:12;0.37;;;0.37;;
9842;SDS011;4960;48.736;9.108;2023-04-06T00:30:39;0.30;;;0.30;;
9842;SDS011;4960;48.736;9.108;2023-04-06T00:33:06;0.30;;;0.30;;
9842;SDS011;4960;48.736;9.108;2023-04-06T00:35:34;0.40;;;0.40;;
9842;SDS011;4960;48.736;9.108;2023-04-06T00:38:01;0.30;;;0.30;;
9842;SDS011;4960;48.736;9.108;2023-04-06T00:40:28;0.30;;;0.30;;
9842;SDS011;4960;48.736;9.108;2023-04-06T00:42:56;0.30;;;0.30;;
9842;SDS011;4960;48.736;9.108;2023-04-06T00:45:24;0.30;;;0.30;;
9842;SDS011;4960;48.736;9.108;2023-04-06T00:47:52;0.30;;;0.30;;
9842;SDS011;4960;48.736;9.108;2023-04-06T00:50:19;0.30;;;0.30;;
9842;SDS011;4960;48.736;9.108;2023-04-06T00:52:46;0.20;;;0.20;;
9842;SDS011;4960;48.736;9.108;2023-04-06T00:55:13;0.30;;;0.30;;
9842;SDS011;4960;48.736;9.108;2023-04-06T00:57:40;0.30;;;0.30;;
9842;SDS011;4960;48.736;9.108;2023-04-06T01:00:08;0.33;;;0.33;;
9842;SDS011;4960;48.736;9.108;2023-04-06T01:02:36;0.30;;;0.30;;
9842;SDS011;4960;48.736;9.108;2023-04-06T01:05:04;0.30;;;0.30;;
9842;SDS011;4960;48.736;9.108;2023-04-06T01:07:31;0.30;;;0.30;;
9842;SDS011;4960;48.736;9.108;2023-04-06T01:09:58;0.30;;;0.30;;
9842;SDS011;4960;48.736;9.108;2023-04-06T01:12:26;0.30;;;0.30;;
9842;SDS011;4960;48.736;9.108;2023-04-06T01:14:53;0.30;;;0.30;;
9842;SDS011;4960;48.736;9.108;2023-04-06T01:17:20;0.30;;;0.30;;
9842;SDS011;4960;48.736;9.108;2023-04-06T01:19:49;0.30;;;0.30;;
9842;SDS011;4960;48.736;9.108;2023-04-06T01:22:20;0.30;;;0.30;;
9842;SDS011;4960;48.736;9.108;2023-04-06T01:24:47;0.30;;;0.30;;
9842;SDS011;4960;48.736;9.108;2023-04-06T01:27:14;0.30;;;0.30;;
9842;SDS011;4960;48.736;9.108;2023-04-06T01:29:41;0.30;;;0.30;;
9842;SDS011;4960;48.736;9.108;2023-04-06T01:32:09;0.40;;;0.40;;
9842;SDS011;4960;48.736;9.108;2023-04-06T01:34:36;0.30;;;0.30;;
9842;SDS011;4960;48.736;9.108;2023-04-06T01:37:03;0.30;;;0.30;;
9842;SDS011;4960;48.736;9.108;2023-04-06T01:39:32;0.30;;;0.30;;
9842;SDS011;4960;48.736;9.108;2023-04-06T01:41:59;0.23;;;0.23;;
9842;SDS011;4960;48.736;9.108;2023-04-06T01:44:26;0.40;;;0.40;;
9842;SDS011;4960;48.736;9.108;2023-04-06T01:46:55;0.30;;;0.30;;
9842;SDS011;4960;48.736;9.108;2023-04-06T01:49:22;0.30;;;0.30;;
9842;SDS011;4960;48.736;9.108;2023-04-06T01:51:49;0.30;;;0.30;;
9842;SDS011;4960;48.736;9.108;2023-04-06T01:54:17;0.30;;;0.30;;
9842;SDS011;4960;48.736;9.108;2023-04-06T01:56:46;0.30;;;0.30;;
9842;SDS011;4960;48.736;9.108;2023-04-06T01:59:15;0.30;;;0.30;;
9842;SDS011;4960;48.736;9.108;2023-04-06T02:01:42;0.30;;;0.30;;
9842;SDS011;4960;48.736;9.108;2023-04-06T02:04:10;0.37;;;0.37;;
9842;SDS011;4960;48.736;9.108;2023-04-06T02:06:38;0.30;;;0.30;;
9842;SDS011;4960;48.736;9.108;2023-04-06T02:09:05;0.30;;;0.30;;
9842;SDS011;4960;48.736;9.108;2023-04-06T02:11:33;0.37;;;0.37;;
9842;SDS011;4960;48.736;9.108;2023-04-06T02:14:01;0.37;;;0.37;;
9842;SDS011;4960;48.736;9.108;2023-04-06T02:16:29;0.30;;;0.30;;
9842;SDS011;4960;48.736;9.108;2023-04-06T02:18:56;0.30;;;0.30;;
9842;SDS011;4960;48.736;9.108;2023-04-06T02:21:23;0.30;;;0.30;;
9842;SDS011;4960;48.736;9.108;2023-04-06T02:23:50;0.30;;;0.30;;
9842;SDS011;4960;48.736;9.108;2023-04-06T02:26:17;0.20;;;0.20;;
9842;SDS011;4960;48.736;9.108;2023-04-06T02:28:45;0.20;;;0.20;;
9842;SDS011;4960;48.736;9.108;2023-04-06T02:31:13;0.30;;;0.30;;
9842;SDS011;4960;48.736;9.108;2023-04-06T02:33:41;0.20;;;0.20;;
9842;SDS011;4960;48.736;9.108;2023-04-06T02:36:08;0.33;;;0.33;;
9842;SDS011;4960;48.736;9.108;2023-04-06T02:38:35;0.30;;;0.30;;
9842;SDS011;4960;48.736;9.108;2023-04-06T02:41:02;0.40;;;0.40;;
9842;SDS011;4960;48.736;9.108;2023-04-06T02:43:30;0.20;;;0.20;;
9842;SDS011;4960;48.736;9.108;2023-04-06T02:45:57;0.30;;;0.30;;
9842;SDS011;4960;48.736;9.108;2023-04-06T02:48:25;0.20;;;0.20;;
9842;SDS011;4960;48.736;9.108;2023-04-06T02:53:21;0.30;;;0.30;;
9842;SDS011;4960;48.736;9.108;2023-04-06T02:55:48;0.30;;;0.30;;
9842;SDS011;4960;48.736;9.108;2023-04-06T02:58:15;0.30;;;0.30;;
9842;SDS011;4960;48.736;9.108;2023-04-06T03:00:43;0.30;;;0.30;;
9842;SDS011;4960;48.736;9.108;2023-04-06T03:03:10;0.27;;;0.27;;
9842;SDS011;4960;48.736;9.108;2023-04-06T03:05:38;0.30;;;0.30;;
9842;SDS011;4960;48.736;9.108;2023-04-06T03:08:06;0.30;;;0.30;;
9842;SDS011;4960;48.736;9.108;2023-04-06T03:10:33;0.40;;;0.40;;
9842;SDS011;4960;48.736;9.108;2023-04-06T03:13:00;0.30;;;0.30;;
9842;SDS011;4960;48.736;9.108;2023-04-06T03:15:27;0.30;;;0.30;;
9842;SDS011;4960;48.736;9.108;2023-04-06T03:17:55;0.30;;;0.30;;
9842;SDS011;4960;48.736;9.108;2023-04-06T03:20:22;0.30;;;0.30;;
9842;SDS011;4960;48.736;9.108;2023-04-06T03:22:51;0.30;;;0.30;;
9842;SDS011;4960;48.736;9.108;2023-04-06T03:25:18;0.30;;;0.30;;
9842;SDS011;4960;48.736;9.108;2023-04-06T03:27:45;0.40;;;0.40;;
9842;SDS011;4960;48.736;9.108;2023-04-06T03:30:13;0.30;;;0.30;;
9842;SDS011;4960;48.736;9.108;2023-04-06T03:32:41;0.30;;;0.30;;
9842;SDS011;4960;48.736;9.108;2023-04-06T03:35:08;0.40;;;0.40;;
9842;SDS011;4960;48.736;9.108;2023-04-06T03:37:36;0.27;;;0.27;;
9842;SDS011;4960;48.736;9.108;2023-04-06T03:40:05;0.30;;;0.30;;
9842;SDS011;4960;48.736;9.108;2023-04-06T03:42:32;0.20;;;0.20;;
9842;SDS011;4960;48.736;9.108;2023-04-06T03:44:59;0.30;;;0.30;;
9842;SDS011;4960;48.736;9.108;2023-04-06T03:47:27;0.30;;;0.30;;
9842;SDS011;4960;48.736;9.108;2023-04-06T03:49:54;0.30;;;0.30;;
9842;SDS011;4960;48.736;9.108;2023-04-06T03:52:21;0.40;;;0.40;;
9842;SDS011;4960;48.736;9.108;2023-04-06T03:54:49;0.40;;;0.40;;
9842;SDS011;4960;48.736;9.108;2023-04-06T03:57:17;0.40;;;0.40;;
9842;SDS011;4960;48.736;9.108;2023-04-06T03:59:45;0.30;;;0.30;;
9842;SDS011;4960;48.736;9.108;2023-04-06T04:02:12;0.30;;;0.30;;
9842;SDS011;4960;48.736;9.108;2023-04-06T04:04:39;0.40;;;0.40;;
9842;SDS011;4960;48.736;9.108;2023-04-06T04:07:06;0.40;;;0.40;;
9842;SDS011;4960;48.736;9.108;2023-04-06T04:09:34;0.30;;;0.30;;
9842;SDS011;4960;48.736;9.108;2023-04-06T04:12:01;0.20;;;0.20;;
9842;SDS011;4960;48.736;9.108;2023-04-06T04:14:30;0.30;;;0.30;;
9842;SDS011;4960;48.736;9.108;2023-04-06T04:16:57;0.40;;;0.40;;
9842;SDS011;4960;48.736;9.108;2023-04-06T04:19:24;0.20;;;0.20;;
9842;SDS011;4960;48.736;9.108;2023-04-06T04:21:51;0.40;;;0.40;;
9842;SDS011;4960;48.736;9.108;2023-04-06T04:24:19;0.23;;;0.23;;
9842;SDS011;4960;48.736;9.108;2023-04-06T04:26:46;0.30;;;0.30;;
9842;SDS011;4960;48.736;9.108;2023-04-06T04:29:13;0.30;;;0.30;;
9842;SDS011;4960;48.736;9.108;2023-04-06T04:31:43;0.30;;;0.30;;
9842;SDS011;4960;48.736;9.108;2023-04-06T04:34:10;0.23;;;0.23;;
9842;SDS011;4960;48.736;9.108;2023-04-06T04:36:37;0.30;;;0.30;;
9842;SDS011;4960;48.736;9.108;2023-04-06T04:39:06;0.30;;;0.30;;
9842;SDS011;4960;48.736;9.108;2023-04-06T04:41:33;0.30;;;0.30;;
9842;SDS011;4960;48.736;9.108;2023-04-06T04:44:01;0.30;;;0.30;;
9842;SDS011;4960;48.736;9.108;2023-04-06T04:46:28;0.30;;;0.30;;
9842;SDS011;4960;48.736;9.108;2023-04-06T04:48:56;0.30;;;0.30;;
9842;SDS011;4960;48.736;9.108;2023-04-06T04:51:24;0.30;;;0.30;;
9842;SDS011;4960;48.736;9.108;2023-04-06T04:53:51;0.40;;;0.40;;
9842;SDS011;4960;48.736;9.108;2023-04-06T04:56:18;0.40;;;0.40;;
9842;SDS011;4960;48.736;9.108;2023-04-06T04:58:46;0.30;;;0.30;;
9842;SDS011;4960;48.736;9.108;2023-04-06T05:01:13;0.30;;;0.30;;
9842;SDS011;4960;48.736;9.108;2023-04-06T05:03:40;0.30;;;0.30;;
9842;SDS011;4960;48.736;9.108;2023-04-06T05:06:09;0.23;;;0.23;;
9842;SDS011;4960;48.736;9.108;2023-04-06T05:08:36;0.30;;;0.30;;
9842;SDS011;4960;48.736;9.108;2023-04-06T05:11:03;0.30;;;0.30;;
9842;SDS011;4960;48.736;9.108;2023-04-06T05:13:31;0.30;;;0.30;;
9842;SDS011;4960;48.736;9.108;2023-04-06T05:15:58;0.20;;;0.20;;
9842;SDS011;4960;48.736;9.108;2023-04-06T05:18:25;0.30;;;0.30;;
9842;SDS011;4960;48.736;9.108;2023-04-06T05:20:52;0.30;;;0.30;;
9842;SDS011;4960;48.736;9.108;2023-04-06T05:23:21;0.30;;;0.30;;
9842;SDS011;4960;48.736;9.108;2023-04-06T05:25:48;0.33;;;0.33;;
9842;SDS011;4960;48.736;9.108;2023-04-06T05:28:16;0.30;;;0.30;;
9842;SDS011;4960;48.736;9.108;2023-04-06T05:30:43;0.33;;;0.33;;
9842;SDS011;4960;48.736;9.108;2023-04-06T05:33:11;0.23;;;0.23;;
9842;SDS011;4960;48.736;9.108;2023-04-06T05:35:38;0.30;;;0.30;;
9842;SDS011;4960;48.736;9.108;2023-04-06T05:38:07;0.20;;;0.20;;
9842;SDS011;4960;48.736;9.108;2023-04-06T05:40:36;0.30;;;0.30;;
9842;SDS011;4960;48.736;9.108;2023-04-06T05:43:05;0.30;;;0.30;;
9842;SDS011;4960;48.736;9.108;2023-04-06T05:45:33;0.30;;;0.30;;
9842;SDS011;4960;48.736;9.108;2023-04-06T05:48:01;0.40;;;0.40;;
9842;SDS011;4960;48.736;9.108;2023-04-06T05:50:28;0.20;;;0.20;;
9842;SDS011;4960;48.736;9.108;2023-04-06T05:52:55;0.30;;;0.30;;
9842;SDS011;4960;48.736;9.108;2023-04-06T05:55:24;0.30;;;0.30;;
9842;SDS011;4960;48.736;9.108;2023-04-06T05:57:52;0.30;;;0.30;;
9842;SDS011;4960;48.736;9.108;2023-04-06T06:00:20;0.20;;;0.20;;
9842;SDS011;4960;48.736;9.108;2023-04-06T06:02:47;0.20;;;0.20;;
9842;SDS011;4960;48.736;9.108;2023-04-06T06:05:14;0.20;;;0.20;;
9842;SDS011;4960;48.736;9.108;2023-04-06T06:07:41;0.20;;;0.20;;
9842;SDS011;4960;48.736;9.108;2023-04-06T06:10:09;0.23;;;0.23;;
9842;SDS011;4960;48.736;9.108;2023-04-06T06:12:36;0.20;;;0.20;;
9842;SDS011;4960;48.736;9.108;2023-04-06T06:15:06;0.20;;;0.20;;
9842;SDS011;4960;48.736;9.108;2023-04-06T06:17:33;0.30;;;0.30;;
9842;SDS011;4960;48.736;9.108;2023-04-06T06:20:00;0.20;;;0.20;;
9842;SDS011;4960;48.736;9.108;2023-04-06T06:22:28;0.20;;;0.20;;
9842;SDS011;4960;48.736;9.108;2023-04-06T06:24:55;0.20;;;0.20;;
9842;SDS011;4960;48.736;9.108;2023-04-06T06:27:22;0.20;;;0.20;;
9842;SDS011;4960;48.736;9.108;2023-04-06T06:29:49;0.20;;;0.20;;
9842;SDS011;4960;48.736;9.108;2023-04-06T06:32:18;0.10;;;0.10;;
9842;SDS011;4960;48.736;9.108;2023-04-06T06:34:45;0.20;;;0.20;;
9842;SDS011;4960;48.736;9.108;2023-04-06T06:37:12;0.20;;;0.20;;
9842;SDS011;4960;48.736;9.108;2023-04-06T06:39:40;0.17;;;0.17;;
9842;SDS011;4960;48.736;9.108;2023-04-06T06:42:07;0.20;;;0.20;;
9842;SDS011;4960;48.736;9.108;2023-04-06T06:44:34;0.20;;;0.20;;
9842;SDS011;4960;48.736;9.108;2023-04-06T06:47:01;0.10;;;0.10;;
9842;SDS011;4960;48.736;9.108;2023-04-06T06:49:30;0.10;;;0.10;;
9842;SDS011;4960;48.736;9.108;2023-04-06T06:51:57;0.10;;;0.10;;
9842;SDS011;4960;48.736;9.108;2023-04-06T06:54:25;0.10;;;0.10;;
9842;SDS011;4960;48.736;9.108;2023-04-06T06:56:52;0.10;;;0.10;;
9842;SDS011;4960;48.736;9.108;2023-04-06T06:59:19;0.10;;;0.10;;
9842;SDS011;4960;48.736;9.108;2023-04-06T07:01:47;0.10;;;0.10;;
9842;SDS011;4960;48.736;9.108;2023-04-06T07:04:14;0.10;;;0.10;;
9842;SDS011;4960;48.736;9.108;2023-04-06T07:06:43;0.10;;;0.10;;
9842;SDS011;4960;48.736;9.108;2023-04-06T07:09:10;0.10;;;0.10;;
9842;SDS011;4960;48.736;9.108;2023-04-06T07:11:37;0.10;;;0.10;;
9842;SDS011;4960;48.736;9.108;2023-04-06T07:14:04;0.10;;;0.10;;
9842;SDS011;4960;48.736;9.108;2023-04-06T07:16:32;0.10;;;0.10;;
9842;SDS011;4960;48.736;9.108;2023-04-06T07:18:59;0.07;;;0.07;;
9842;SDS011;4960;48.736;9.108;2023-04-06T07:21:26;0.00;;;0.00;;
9842;SDS011;4960;48.736;9.108;2023-04-06T07:23:55;0.10;;;0.10;;
9842;SDS011;4960;48.736;9.108;2023-04-06T07:26:22;0.10;;;0.10;;
9842;SDS011;4960;48.736;9.108;2023-04-06T07:28:49;0.10;;;0.10;;
9842;SDS011;4960;48.736;9.108;2023-04-06T07:31:16;0.00;;;0.00;;
9842;SDS011;4960;48.736;9.108;2023-04-06T07:33:44;0.00;;;0.00;;
9842;SDS011;4960;48.736;9.108;2023-04-06T07:36:12;0.10;;;0.10;;
9842;SDS011;4960;48.736;9.108;2023-04-06T07:38:39;0.10;;;0.10;;
9842;SDS011;4960;48.736;9.108;2023-04-06T07:41:08;0.10;;;0.10;;
9842;SDS011;4960;48.736;9.108;2023-04-06T07:43:35;0.10;;;0.10;;
9842;SDS011;4960;48.736;9.108;2023-04-06T07:46:03;0.00;;;0.00;;
9842;SDS011;4960;48.736;9.108;2023-04-06T07:48:30;0.00;;;0.00;;
9842;SDS011;4960;48.736;9.108;2023-04-06T07:51:00;0.40;;;0.40;;
9842;SDS011;4960;48.736;9.108;2023-04-06T07:53:28;0.10;;;0.10;;
9842;SDS011;4960;48.736;9.108;2023-04-06T07:55:55;0.10;;;0.10;;
9842;SDS011;4960;48.736;9.108;2023-04-06T07:58:24;0.10;;;0.10;;
9842;SDS011;4960;48.736;9.108;2023-04-06T08:00:51;0.10;;;0.10;;
9842;SDS011;4960;48.736;9.108;2023-04-06T08:03:19;0.00;;;0.00;;
9842;SDS011;4960;48.736;9.108;2023-04-06T08:05:50;0.10;;;0.10;;
9842;SDS011;4960;48.736;9.108;2023-04-06T08:08:18;0.10;;;0.10;;
9842;SDS011;4960;48.736;9.108;2023-04-06T08:10:46;0.10;;;0.10;;
9842;SDS011;4960;48.736;9.108;2023-04-06T08:13:13;0.07;;;0.07;;
9842;SDS011;4960;48.736;9.108;2023-04-06T08:15:42;0.00;;;0.00;;
9842;SDS011;4960;48.736;9.108;2023-04-06T08:18:09;0.10;;;0.10;;
9842;SDS011;4960;48.736;9.108;2023-04-06T08:20:36;0.00;;;0.00;;
9842;SDS011;4960;48.736;9.108;2023-04-06T08:23:04;0.10;;;0.10;;
9842;SDS011;4960;48.736;9.108;2023-04-06T08:25:31;0.10;;;0.10;;
9842;SDS011;4960;48.736;9.108;2023-04-06T08:27:59;0.10;;;0.10;;
9842;SDS011;4960;48.736;9.108;2023-04-06T08:30:26;0.10;;;0.10;;
9842;SDS011;4960;48.736;9.108;2023-04-06T08:32:54;0.00;;;0.00;;
9842;SDS011;4960;48.736;9.108;2023-04-06T08:35:22;0.10;;;0.10;;
9842;SDS011;4960;48.736;9.108;2023-04-06T08:37:49;0.00;;;0.00;;
9842;SDS011;4960;48.736;9.108;2023-04-06T08:40:16;0.10;;;0.10;;
9842;SDS011;4960;48.736;9.108;2023-04-06T08:42:44;0.10;;;0.10;;
9842;SDS011;4960;48.736;9.108;2023-04-06T08:45:11;0.10;;;0.10;;
9842;SDS011;4960;48.736;9.108;2023-04-06T08:47:40;0.00;;;0.00;;
9842;SDS011;4960;48.736;9.108;2023-04-06T08:50:10;0.00;;;0.00;;
9842;SDS011;4960;48.736;9.108;2023-04-06T08:52:37;0.10;;;0.10;;
9842;SDS011;4960;48.736;9.108;2023-04-06T08:55:05;0.10;;;0.10;;
9842;SDS011;4960;48.736;9.108;2023-04-06T08:57:32;0.00;;;0.00;;
9842;SDS011;4960;48.736;9.108;2023-04-06T09:00:01;0.03;;;0.03;;
9842;SDS011;4960;48.736;9.108;2023-04-06T09:02:29;0.00;;;0.00;;
9842;SDS011;4960;48.736;9.108;2023-04-06T09:04:57;0.00;;;0.00;;
9842;SDS011;4960;48.736;9.108;2023-04-06T09:07:26;0.00;;;0.00;;
9842;SDS011;4960;48.736;9.108;2023-04-06T09:09:54;0.00;;;0.00;;
9842;SDS011;4960;48.736;9.108;2023-04-06T09:12:22;0.00;;;0.00;;
9842;SDS011;4960;48.736;9.108;2023-04-06T09:14:49;0.00;;;0.00;;
9842;SDS011;4960;48.736;9.108;2023-04-06T09:17:20;0.00;;;0.00;;
9842;SDS011;4960;48.736;9.108;2023-04-06T09:19:47;0.00;;;0.00;;
9842;SDS011;4960;48.736;9.108;2023-04-06T09:22:15;0.20;;;0.20;;
9842;SDS011;4960;48.736;9.108;2023-04-06T09:24:44;0.00;;;0.00;;
9842;SDS011;4960;48.736;9.108;2023-04-06T09:27:12;0.00;;;0.00;;
9842;SDS011;4960;48.736;9.108;2023-04-06T09:29:40;0.00;;;0.00;;
9842;SDS011;4960;48.736;9.108;2023-04-06T09:32:07;0.00;;;0.00;;
9842;SDS011;4960;48.736;9.108;2023-04-06T09:34:36;0.00;;;0.00;;
9842;SDS011;4960;48.736;9.108;2023-04-06T09:37:11;0.00;;;0.00;;
9842;SDS011;4960;48.736;9.108;2023-04-06T09:39:39;0.00;;;0.00;;
9842;SDS011;4960;48.736;9.108;2023-04-06T09:42:07;0.07;;;0.07;;
9842;SDS011;4960;48.736;9.108;2023-04-06T09:44:35;0.00;;;0.00;;
9842;SDS011;4960;48.736;9.108;2023-04-06T09:47:02;0.10;;;0.10;;
9842;SDS011;4960;48.736;9.108;2023-04-06T09:49:31;0.00;;;0.00;;
9842;SDS011;4960;48.736;9.108;2023-04-06T09:52:01;0.00;;;0.00;;
9842;SDS011;4960;48.736;9.108;2023-04-06T09:54:29;0.00;;;0.00;;
9842;SDS011;4960;48.736;9.108;2023-04-06T09:56:58;0.00;;;0.00;;
9842;SDS011;4960;48.736;9.108;2023-04-06T09:59:31;0.00;;;0.00;;
9842;SDS011;4960;48.736;9.108;2023-04-06T10:02:02;0.00;;;0.00;;
9842;SDS011;4960;48.736;9.108;2023-04-06T10:04:32;0.00;;;0.00;;
9842;SDS011;4960;48.736;9.108;2023-04-06T10:07:03;0.00;;;0.00;;
9842;SDS011;4960;48.736;9.108;2023-04-06T10:09:31;0.00;;;0.00;;
9842;SDS011;4960;48.736;9.108;2023-04-06T10:12:02;0.00;;;0.00;;
9842;SDS011;4960;48.736;9.108;2023-04-06T10:14:31;0.00;;;0.00;;
9842;SDS011;4960;48.736;9.108;2023-04-06T10:17:02;0.00;;;0.00;;
9842;SDS011;4960;48.736;9.108;2023-04-06T10:19:36;0.10;;;0.10;;
9842;SDS011;4960;48.736;9.108;2023-04-06T10:22:06;0.10;;;0.10;;
9842;SDS011;4960;48.736;9.108;2023-04-06T10:24:35;0.00;;;0.00;;
9842;SDS011;4960;48.736;9.108;2023-04-06T10:27:03;0.03;;;0.03;;
9842;SDS011;4960;48.736;9.108;2023-04-06T10:29:41;0.00;;;0.00;;
9842;SDS011;4960;48.736;9.108;2023-04-06T10:32:10;0.10;;;0.10;;
9842;SDS011;4960;48.736;9.108;2023-04-06T10:34:37;0.00;;;0.00;;
9842;SDS011;4960;48.736;9.108;2023-04-06T10:37:11;0.00;;;0.00;;
9842;SDS011;4960;48.736;9.108;2023-04-06T10:39:45;0.00;;;0.00;;
9842;SDS011;4960;48.736;9.108;2023-04-06T10:42:13;0.00;;;0.00;;
9842;SDS011;4960;48.736;9.108;2023-04-06T10:44:45;0.00;;;0.00;;
9842;SDS011;4960;48.736;9.108;2023-04-06T10:47:16;0.00;;;0.00;;
9842;SDS011;4960;48.736;9.108;2023-04-06T10:49:44;0.10;;;0.10;;
9842;SDS011;4960;48.736;9.108;2023-04-06T10:52:11;0.00;;;0.00;;
9842;SDS011;4960;48.736;9.108;2023-04-06T10:54:40;0.00;;;0.00;;
9842;SDS011;4960;48.736;9.108;2023-04-06T10:57:09;0.03;;;0.03;;
9842;SDS011;4960;48.736;9.108;2023-04-06T10:59:36;0.00;;;0.00;;
9842;SDS011;4960;48.736;9.108;2023-04-06T11:02:05;0.00;;;0.00;;
9842;SDS011;4960;48.736;9.108;2023-04-06T11:04:32;0.00;;;0.00;;
9842;SDS011;4960;48.736;9.108;2023-04-06T11:06:59;0.00;;;0.00;;
9842;SDS011;4960;48.736;9.108;2023-04-06T11:09:27;0.00;;;0.00;;
9842;SDS011;4960;48.736;9.108;2023-04-06T11:11:56;0.00;;;0.00;;
9842;SDS011;4960;48.736;9.108;2023-04-06T11:34:04;0.00;;;0.00;;
9842;SDS011;4960;48.736;9.108;2023-04-06T11:36:35;0.00;;;0.00;;
9842;SDS011;4960;48.736;9.108;2023-04-06T11:39:02;0.00;;;0.00;;
9842;SDS011;4960;48.736;9.108;2023-04-06T11:41:30;0.00;;;0.00;;
9842;SDS011;4960;48.736;9.108;2023-04-06T11:44:00;0.00;;;0.00;;
9842;SDS011;4960;48.736;9.108;2023-04-06T11:46:27;0.00;;;0.00;;
9842;SDS011;4960;48.736;9.108;2023-04-06T11:48:57;0.00;;;0.00;;
9842;SDS011;4960;48.736;9.108;2023-04-06T11:51:27;0.00;;;0.00;;
9842;SDS011;4960;48.736;9.108;2023-04-06T11:53:54;0.00;;;0.00;;
9842;SDS011;4960;48.736;9.108;2023-04-06T11:56:22;0.00;;;0.00;;
9842;SDS011;4960;48.736;9.108;2023-04-06T11:58:50;0.00;;;0.00;;
9842;SDS011;4960;48.736;9.108;2023-04-06T12:01:17;0.00;;;0.00;;
9842;SDS011;4960;48.736;9.108;2023-04-06T12:03:44;0.00;;;0.00;;
9842;SDS011;4960;48.736;9.108;2023-04-06T12:06:12;0.00;;;0.00;;
9842;SDS011;4960;48.736;9.108;2023-04-06T12:08:41;0.00;;;0.00;;
9842;SDS011;4960;48.736;9.108;2023-04-06T12:11:08;0.00;;;0.00;;
9842;SDS011;4960;48.736;9.108;2023-04-06T12:13:35;0.00;;;0.00;;
9842;SDS011;4960;48.736;9.108;2023-04-06T12:16:03;0.00;;;0.00;;
9842;SDS011;4960;48.736;9.108;2023-04-06T12:18:30;0.00;;;0.00;;
9842;SDS011;4960;48.736;9.108;2023-04-06T12:20:57;0.00;;;0.00;;
9842;SDS011;4960;48.736;9.108;2023-04-06T12:23:25;0.00;;;0.00;;
9842;SDS011;4960;48.736;9.108;2023-04-06T12:25:54;0.00;;;0.00;;
9842;SDS011;4960;48.736;9.108;2023-04-06T12:28:21;0.00;;;0.00;;
9842;SDS011;4960;48.736;9.108;2023-04-06T12:30:52;0.00;;;0.00;;
9842;SDS011;4960;48.736;9.108;2023-04-06T12:33:20;0.00;;;0.00;;
9842;SDS011;4960;48.736;9.108;2023-04-06T12:35:47;0.00;;;0.00;;
9842;SDS011;4960;48.736;9.108;2023-04-06T12:38:15;0.00;;;0.00;;
9842;SDS011;4960;48.736;9.108;2023-04-06T12:40:42;0.00;;;0.00;;
9842;SDS011;4960;48.736;9.108;2023-04-06T12:43:13;0.10;;;0.10;;
9842;SDS011;4960;48.736;9.108;2023-04-06T12:45:40;0.00;;;0.00;;
9842;SDS011;4960;48.736;9.108;2023-04-06T12:48:07;0.10;;;0.10;;
9842;SDS011;4960;48.736;9.108;2023-04-06T12:50:35;0.10;;;0.10;;
9842;SDS011;4960;48.736;9.108;2023-04-06T12:53:02;0.10;;;0.10;;
9842;SDS011;4960;48.736;9.108;2023-04-06T12:55:30;0.00;;;0.00;;
9842;SDS011;4960;48.736;9.108;2023-04-06T12:58:00;0.00;;;0.00;;
9842;SDS011;4960;48.736;9.108;2023-04-06T13:00:29;0.00;;;0.00;;
9842;SDS011;4960;48.736;9.108;2023-04-06T13:02:57;0.00;;;0.00;;
9842;SDS011;4960;48.736;9.108;2023-04-06T13:05:24;0.00;;;0.00;;
9842;SDS011;4960;48.736;9.108;2023-04-06T13:07:51;0.00;;;0.00;;
9842;SDS011;4960;48.736;9.108;2023-04-06T13:10:19;0.00;;;0.00;;
9842;SDS011;4960;48.736;9.108;2023-04-06T13:12:46;0.00;;;0.00;;
9842;SDS011;4960;48.736;9.108;2023-04-06T13:15:13;0.00;;;0.00;;
9842;SDS011;4960;48.736;9.108;2023-04-06T13:17:42;0.00;;;0.00;;
9842;SDS011;4960;48.736;9.108;2023-04-06T13:20:09;0.00;;;0.00;;
9842;SDS011;4960;48.736;9.108;2023-04-06T13:22:37;0.00;;;0.00;;
9842;SDS011;4960;48.736;9.108;2023-04-06T13:25:04;0.00;;;0.00;;
9842;SDS011;4960;48.736;9.108;2023-04-06T13:27:32;0.00;;;0.00;;
9842;SDS011;4960;48.736;9.108;2023-04-06T13:30:00;0.00;;;0.00;;
9842;SDS011;4960;48.736;9.108;2023-04-06T13:32:28;0.00;;;0.00;;
9842;SDS011;4960;48.736;9.108;2023-04-06T13:34:57;0.00;;;0.00;;
9842;SDS011;4960;48.736;9.108;2023-04-06T13:37:25;0.00;;;0.00;;
9842;SDS011;4960;48.736;9.108;2023-04-06T13:39:53;0.00;;;0.00;;
9842;SDS011;4960;48.736;9.108;2023-04-06T13:42:20;0.00;;;0.00;;
9842;SDS011;4960;48.736;9.108;2023-04-06T13:44:47;0.00;;;0.00;;
9842;SDS011;4960;48.736;9.108;2023-04-06T13:47:15;0.00;;;0.00;;
9842;SDS011;4960;48.736;9.108;2023-04-06T13:49:43;0.00;;;0.00;;
9842;SDS011;4960;48.736;9.108;2023-04-06T13:52:11;0.00;;;0.00;;
9842;SDS011;4960;48.736;9.108;2023-04-06T14:21:38;0.10;;;0.10;;
9842;SDS011;4960;48.736;9.108;2023-04-06T14:24:06;0.00;;;0.00;;
9842;SDS011;4960;48.736;9.108;2023-04-06T14:26:33;0.10;;;0.10;;
9842;SDS011;4960;48.736;9.108;2023-04-06T14:29:00;0.00;;;0.00;;
9842;SDS011;4960;48.736;9.108;2023-04-06T14:31:28;0.10;;;0.10;;
9842;SDS011;4960;48.736;9.108;2023-04-06T14:33:56;0.00;;;0.00;;
9842;SDS011;4960;48.736;9.108;2023-04-06T14:36:23;0.03;;;0.03;;
9842;SDS011;4960;48.736;9.108;2023-04-06T14:38:53;0.10;;;0.10;;
9842;SDS011;4960;48.736;9.108;2023-04-06T14:41:22;0.00;;;0.00;;
9842;SDS011;4960;48.736;9.108;2023-04-06T14:43:49;0.00;;;0.00;;
9842;SDS011;4960;48.736;9.108;2023-04-06T14:46:17;0.00;;;0.00;;
9842;SDS011;4960;48.736;9.108;2023-04-06T14:48:44;0.00;;;0.00;;
9842;SDS011;4960;48.736;9.108;2023-04-06T14:51:12;0.10;;;0.10;;
9842;SDS011;4960;48.736;9.108;2023-04-06T14:53:39;0.00;;;0.00;;
9842;SDS011;4960;48.736;9.108;2023-04-06T14:56:08;0.00;;;0.00;;
9842;SDS011;4960;48.736;9.108;2023-04-06T14:58:35;0.10;;;0.10;;
9842;SDS011;4960;48.736;9.108;2023-04-06T15:01:02;0.10;;;0.10;;
9842;SDS011;4960;48.736;9.108;2023-04-06T15:03:31;0.10;;;0.10;;
9842;SDS011;4960;48.736;9.108;2023-04-06T15:05:58;0.00;;;0.00;;
9842;SDS011;4960;48.736;9.108;2023-04-06T15:08:37;0.07;;;0.07;;
9842;SDS011;4960;48.736;9.108;2023-04-06T15:11:07;0.00;;;0.00;;
9842;SDS011;4960;48.736;9.108;2023-04-06T15:13:34;0.10;;;0.10;;
9842;SDS011;4960;48.736;9.108;2023-04-06T15:16:02;0.10;;;0.10;;
9842;SDS011;4960;48.736;9.108;2023-04-06T15:18:29;0.10;;;0.10;;
9842;SDS011;4960;48.736;9.108;2023-04-06T15:20:56;0.10;;;0.10;;
9842;SDS011;4960;48.736;9.108;2023-04-06T15:23:23;0.10;;;0.10;;
9842;SDS011;4960;48.736;9.108;2023-04-06T15:25:51;0.10;;;0.10;;
9842;SDS011;4960;48.736;9.108;2023-04-06T15:28:20;0.10;;;0.10;;
9842;SDS011;4960;48.736;9.108;2023-04-06T15:30:48;0.10;;;0.10;;
9842;SDS011;4960;48.736;9.108;2023-04-06T15:33:16;0.10;;;0.10;;
9842;SDS011;4960;48.736;9.108;2023-04-06T15:35:43;0.03;;;0.03;;
9842;SDS011;4960;48.736;9.108;2023-04-06T15:38:10;0.00;;;0.00;;
9842;SDS011;4960;48.736;9.108;2023-04-06T15:40:41;0.10;;;0.10;;
9842;SDS011;4960;48.736;9.108;2023-04-06T15:43:10;0.10;;;0.10;;
9842;SDS011;4960;48.736;9.108;2023-04-06T15:45:41;0.00;;;0.00;;
9842;SDS011;4960;48.736;9.108;2023-04-06T15:48:08;0.10;;;0.10;;
9842;SDS011;4960;48.736;9.108;2023-04-06T15:50:35;0.10;;;0.10;;
9842;SDS011;4960;48.736;9.108;2023-04-06T15:53:02;0.00;;;0.00;;
9842;SDS011;4960;48.736;9.108;2023-04-06T15:55:30;0.10;;;0.10;;
9842;SDS011;4960;48.736;9.108;2023-04-06T15:57:57;0.10;;;0.10;;
9842;SDS011;4960;48.736;9.108;2023-04-06T16:00:24;0.10;;;0.10;;
9842;SDS011;4960;48.736;9.108;2023-04-06T16:02:54;0.00;;;0.00;;
9842;SDS011;4960;48.736;9.108;2023-04-06T16:05:22;0.00;;;0.00;;
9842;SDS011;4960;48.736;9.108;2023-04-06T16:07:49;0.10;;;0.10;;